Time;durP1;ratioP1;P1;durP2;ratioP2;P2;SDS_P1;SDS_P2;PMS_P1;PMS_P2;Temp;Humidity;BMP_temperature;BMP_pressure;BME280_temperature;BME280_humidity;BME280_pressure;Samples;Min_cycle;Max_cycle;Signal;HPM_P1;HPM_P2
2021/11/25 00:01:17;;;;;;;18.40;9.27;;;;;;;;;;5030296;28;20040;-89
2021/11/25 00:03:43;;;;;;;16.42;6.13;;;;;;;;;;5026277;28;20029;-89
2021/11/25 00:06:09;;;;;;;12.30;6.65;;;;;;;;;;5032547;28;20029;-90
2021/11/25 00:08:35;;;;;;;14.27;7.43;;;;;;;;;;5034077;28;20127;-89
2021/11/25 00:11:01;;;;;;;21.33;10.93;;;;;;;;;;5033940;28;20394;-90
2021/11/25 00:13:27;;;;;;;19.67;9.25;;;;;;;;;;5033752;28;20038;-91
2021/11/25 00:15:53;;;;;;;20.08;10.45;;;;;;;;;;5033437;28;20052;-89
2021/11/25 00:18:19;;;;;;;15.88;8.68;;;;;;;;;;5049305;28;20506;-89
2021/11/25 00:20:46;;;;;;;19.17;8.15;;;;;;;;;;5034202;28;20501;-90
2021/11/25 00:23:12;;;;;;;29.77;13.30;;;;;;;;;;5032956;28;20140;-90
2021/11/25 00:25:38;;;;;;;29.48;11.75;;;;;;;;;;5033968;28;20013;-89
2021/11/25 00:28:04;;;;;;;26.98;11.63;;;;;;;;;;5049369;28;20516;-90
2021/11/25 00:30:30;;;;;;;28.10;10.80;;;;;;;;;;5033541;28;20127;-89
2021/11/25 00:32:56;;;;;;;20.65;9.18;;;;;;;;;;5032810;28;20018;-91
2021/11/25 00:35:22;;;;;;;21.38;8.85;;;;;;;;;;5033881;28;20037;-90
2021/11/25 00:37:48;;;;;;;27.02;11.68;;;;;;;;;;5045993;28;20026;-88
2021/11/25 00:40:16;;;;;;;27.23;9.48;;;5.40;82.40;;;;;;5030686;28;20037;-88
2021/11/25 00:42:42;;;;;;;20.48;11.00;;;;;;;;;;5018355;28;20032;-90
2021/11/25 00:45:10;;;;;;;25.33;11.27;;;;;;;;;;5033707;28;20033;-91
2021/11/25 00:47:36;;;;;;;26.42;11.07;;;;;;;;;;5032834;28;20026;-90
2021/11/25 00:50:03;;;;;;;24.92;9.55;;;;;;;;;;5033297;28;20033;-91
2021/11/25 00:52:29;;;;;;;21.15;9.68;;;;;;;;;;5033297;28;20090;-91
2021/11/25 00:54:55;;;;;;;20.05;11.35;;;;;;;;;;5033104;28;20032;-90
2021/11/25 00:57:21;;;;;;;29.33;12.43;;;;;;;;;;5033366;28;20662;-89
2021/11/25 00:59:47;;;;;;;18.30;8.70;;;;;;;;;;5033182;28;20033;-91
2021/11/25 01:02:13;;;;;;;13.40;6.40;;;;;;;;;;5045441;28;20032;-90
2021/11/25 01:04:39;;;;;;;13.18;6.05;;;;;;;;;;5024424;28;20049;-90
2021/11/25 01:07:05;;;;;;;14.63;9.00;;;;;;;;;;5048527;28;20026;-90
2021/11/25 01:09:31;;;;;;;18.02;7.78;;;;;;;;;;5031271;28;20029;-91
2021/11/25 01:12:03;;;;;;;21.75;8.38;;;;;;;;;;5033309;28;20018;-89
2021/11/25 01:14:30;;;;;;;23.80;8.57;;;;;;;;;;5047518;28;20068;-90
2021/11/25 01:16:56;;;;;;;25.70;10.20;;;;;;;;;;5026242;28;20029;-89
2021/11/25 01:19:22;;;;;;;22.88;8.93;;;;;;;;;;5032858;28;20552;-89
2021/11/25 01:21:48;;;;;;;23.83;9.27;;;;;;;;;;5032895;28;20025;-90
2021/11/25 01:24:14;;;;;;;23.63;7.68;;;;;;;;;;5048588;28;20053;-90
2021/11/25 01:26:40;;;;;;;22.55;9.50;;;;;;;;;;5032747;28;20091;-91
2021/11/25 01:29:06;;;;;;;14.85;7.35;;;;;;;;;;5031125;28;20490;-90
2021/11/25 01:31:32;;;;;;;24.95;11.75;;;;;;;;;;5028937;28;20018;-90
2021/11/25 01:33:59;;;;;;;13.55;7.50;;;;;;;;;;5032232;28;20885;-90
2021/11/25 01:36:25;;;;;;;19.25;9.45;;;;;;;;;;5032168;28;20034;-89
2021/11/25 01:38:51;;;;;;;19.88;8.05;;;;;;;;;;5031878;28;20199;-90
2021/11/25 01:41:17;;;;;;;23.35;8.95;;;;;;;;;;5031490;28;20109;-91
2021/11/25 01:43:43;;;;;;;17.98;9.25;;;;;;;;;;5022409;28;20030;-90
2021/11/25 01:46:13;;;;;;;25.35;7.53;;;;;;;;;;5013906;28;20026;-90
2021/11/25 01:48:40;;;;;;;22.25;9.02;;;;;;;;;;5015718;28;20031;-90
2021/11/25 01:51:06;;;;;;;16.33;7.10;;;;;;;;;;5032530;28;20119;-88
2021/11/25 01:53:32;;;;;;;20.17;8.70;;;;;;;;;;5031366;28;20032;-90
2021/11/25 01:55:58;;;;;;;16.35;8.15;;;;;;;;;;5032470;28;20025;-89
2021/11/25 01:58:24;;;;;;;16.40;8.15;;;;;;;;;;5031673;28;20040;-89
2021/11/25 02:00:54;;;;;;;18.83;7.82;;;5.70;84.70;;;;;;5027980;28;20051;-90
2021/11/25 02:03:20;;;;;;;15.98;6.65;;;;;;;;;;5011443;28;20446;-89
2021/11/25 02:05:46;;;;;;;21.52;8.55;;;;;;;;;;5032126;28;20021;-90
2021/11/25 02:08:12;;;;;;;15.93;8.90;;;;;;;;;;5044460;28;20076;-89
2021/11/25 02:10:39;;;;;;;23.02;9.30;;;;;;;;;;5023854;28;20022;-92
2021/11/25 02:13:05;;;;;;;26.85;9.85;;;;;;;;;;5031353;28;20061;-91
2021/11/25 02:15:34;;;;;;;26.92;9.80;;;;;;;;;;5031626;28;20037;-90
2021/11/25 02:18:02;;;;;;;18.80;9.80;;;;;;;;;;5032375;28;20029;-90
2021/11/25 02:20:37;;;;;;;19.67;9.07;;;;;;;;;;5030770;28;20116;-93
2021/11/25 02:23:04;;;;;;;28.98;10.45;;;;;;;;;;5031150;28;20056;-90
2021/11/25 02:25:30;;;;;;;19.95;7.97;;;;;;;;;;5032101;28;20030;-90
2021/11/25 02:27:56;;;;;;;20.15;10.95;;;;;;;;;;5029257;28;20036;-90
2021/11/25 02:30:23;;;;;;;24.50;8.32;;;;;;;;;;5032196;28;20025;-88
2021/11/25 02:32:49;;;;;;;19.02;8.73;;;;;;;;;;5032061;28;20025;-91
2021/11/25 02:35:20;;;;;;;18.05;10.30;;;;;;;;;;5031744;28;20412;-91
2021/11/25 02:37:47;;;;;;;22.48;9.75;;;;;;;;;;5030999;28;20033;-90
2021/11/25 02:40:14;;;;;;;16.20;8.30;;;;;;;;;;5031531;28;20033;-90
2021/11/25 02:42:40;;;;;;;27.98;8.75;;;;;;;;;;5030586;28;20026;-89
2021/11/25 02:45:06;;;;;;;26.05;9.07;;;;;;;;;;5031627;28;20035;-91
2021/11/25 02:47:32;;;;;;;19.48;8.77;;;;;;;;;;5031071;28;20030;-91
2021/11/25 02:49:58;;;;;;;36.22;11.00;;;;;;;;;;5028442;28;20497;-92
2021/11/25 02:52:25;;;;;;;19.63;8.50;;;;;;;;;;5031127;28;20083;-90
2021/11/25 02:54:51;;;;;;;23.83;7.75;;;;;;;;;;5030038;28;20029;-91
2021/11/25 02:57:18;;;;;;;21.73;8.43;;;;;;;;;;5030704;28;20029;-89
2021/11/25 02:59:44;;;;;;;19.67;8.35;;;;;;;;;;5029750;28;20014;-90
2021/11/25 03:02:10;;;;;;;22.42;8.25;;;;;;;;;;5031090;28;20033;-89
2021/11/25 03:04:36;;;;;;;23.10;9.15;;;;;;;;;;5030385;28;20124;-89
2021/11/25 03:07:02;;;;;;;19.55;7.78;;;;;;;;;;5031035;28;20494;-90
2021/11/25 03:09:28;;;;;;;21.27;8.63;;;;;;;;;;5031522;28;20086;-88
2021/11/25 03:11:55;;;;;;;28.80;8.50;;;;;;;;;;5031078;28;20105;-89
2021/11/25 03:14:21;;;;;;;11.55;7.15;;;;;;;;;;5031367;28;20025;-91
2021/11/25 03:16:47;;;;;;;18.95;8.98;;;;;;;;;;5044197;28;20064;-90
2021/11/25 03:19:13;;;;;;;27.02;9.57;;;;;;;;;;5028417;28;20131;-89
2021/11/25 03:21:39;;;;;;;16.05;8.02;;;;;;;;;;5029384;28;20038;-90
2021/11/25 03:24:06;;;;;;;20.17;7.10;;;;;;;;;;5029436;28;20045;-89
2021/11/25 03:26:32;;;;;;;23.35;10.10;;;;;;;;;;5029346;28;20029;-90
2021/11/25 03:29:00;;;;;;;18.67;8.13;;;;;;;;;;5031087;28;20021;-91
2021/11/25 03:31:28;;;;;;;17.23;9.32;;;6.20;84.10;;;;;;5030370;28;20494;-90
2021/11/25 03:33:56;;;;;;;19.13;10.50;;;6.10;84.90;;;;;;5029709;28;20068;-89
2021/11/25 03:36:24;;;;;;;14.57;8.20;;;;;;;;;;5030324;28;20065;-91
2021/11/25 03:38:50;;;;;;;25.95;8.35;;;;;;;;;;5031128;28;20376;-90
2021/11/25 03:41:18;;;;;;;22.88;7.32;;;6.20;84.60;;;;;;5034111;28;20064;-90
2021/11/25 03:43:44;;;;;;;19.60;7.30;;;;;;;;;;5033870;28;20040;-91
2021/11/25 03:46:10;;;;;;;18.35;7.68;;;;;;;;;;5034728;28;20049;-89
2021/11/25 03:48:37;;;;;;;28.55;10.38;;;6.20;84.50;;;;;;5049806;28;20033;-90
2021/11/25 03:51:04;;;;;;;20.52;9.38;;;;;;;;;;5033122;28;20021;-91
2021/11/25 03:53:31;;;;;;;24.73;10.13;;;;;;;;;;5032703;28;20060;-90
2021/11/25 03:55:57;;;;;;;27.83;11.03;;;;;;;;;;5046034;28;20110;-90
2021/11/25 03:58:23;;;;;;;20.63;8.85;;;;;;;;;;5023753;28;20029;-91
2021/11/25 04:00:52;;;;;;;30.08;10.82;;;;;;;;;;5034302;28;20040;-89
2021/11/25 04:03:18;;;;;;;20.92;10.60;;;;;;;;;;5033609;28;20113;-89
2021/11/25 04:05:44;;;;;;;17.98;8.93;;;;;;;;;;5033340;28;20136;-89
2021/11/25 04:08:10;;;;;;;25.73;9.57;;;;;;;;;;5026719;28;20033;-89
2021/11/25 04:10:36;;;;;;;19.92;8.43;;;;;;;;;;5034039;28;20536;-90
2021/11/25 04:13:02;;;;;;;25.73;11.73;;;;;;;;;;5034000;28;20033;-90
2021/11/25 04:15:28;;;;;;;21.73;9.65;;;;;;;;;;5034054;28;20104;-90
2021/11/25 04:17:54;;;;;;;21.00;8.45;;;;;;;;;;5013294;28;20112;-91
2021/11/25 04:20:20;;;;;;;16.63;7.57;;;;;;;;;;5029987;28;20167;-89
2021/11/25 04:22:46;;;;;;;18.80;8.85;;;;;;;;;;5033634;28;20512;-90
2021/11/25 04:25:13;;;;;;;23.65;7.43;;;;;;;;;;5031854;28;20083;-90
2021/11/25 04:27:39;;;;;;;17.27;8.52;;;;;;;;;;5030876;28;20026;-90
2021/11/25 04:30:23;;;;;;;28.77;11.15;;;;;;;;;;5034017;28;20043;-90
2021/11/25 04:35:35;;;;;;;24.02;8.90;;;;;;;;;;5033551;28;20135;-90
2021/11/25 04:38:07;;;;;;;15.13;7.63;;;6.00;86.30;;;;;;5032874;28;20486;-90
2021/11/25 04:40:37;;;;;;;21.27;10.75;;;6.10;85.60;;;;;;5031888;28;20053;-89
2021/11/25 04:43:04;;;;;;;20.48;8.75;;;;;;;;;;5031962;28;20045;-90
2021/11/25 04:45:30;;;;;;;23.60;9.77;;;;;;;;;;5032611;28;20111;-88
2021/11/25 04:47:56;;;;;;;26.15;8.95;;;;;;;;;;5032858;28;20079;-90
2021/11/25 04:50:22;;;;;;;22.08;9.70;;;;;;;;;;5032160;28;20026;-89
2021/11/25 04:52:49;;;;;;;21.08;8.93;;;;;;;;;;5023908;28;20437;-90
2021/11/25 04:55:15;;;;;;;17.75;10.30;;;;;;;;;;5032596;28;20076;-90
2021/11/25 04:57:41;;;;;;;25.63;10.32;;;;;;;;;;5032515;28;20041;-90
2021/11/25 05:00:08;;;;;;;20.58;8.60;;;;;;;;;;5032574;28;20068;-90
2021/11/25 05:02:34;;;;;;;21.23;8.27;;;;;;;;;;5032427;28;20516;-89
2021/11/25 05:05:00;;;;;;;21.83;10.25;;;;;;;;;;5032018;28;20052;-89
2021/11/25 05:07:26;;;;;;;34.55;10.18;;;;;;;;;;5030928;28;20026;-89
2021/11/25 05:09:52;;;;;;;26.52;11.70;;;;;;;;;;5031988;28;20394;-89
2021/11/25 05:12:18;;;;;;;23.67;12.00;;;;;;;;;;5031835;28;20604;-91
2021/11/25 05:14:44;;;;;;;21.80;10.07;;;;;;;;;;5032193;28;20033;-90
2021/11/25 05:17:10;;;;;;;19.42;9.52;;;;;;;;;;5030157;28;20112;-89
2021/11/25 05:19:37;;;;;;;14.52;7.60;;;;;;;;;;5032632;28;20025;-88
2021/11/25 05:22:03;;;;;;;15.50;10.02;;;;;;;;;;5032214;28;20079;-90
2021/11/25 05:24:29;;;;;;;26.00;10.23;;;;;;;;;;5031486;28;20049;-90
2021/11/25 05:26:55;;;;;;;22.10;9.88;;;;;;;;;;5025156;28;20468;-89
2021/11/25 05:29:21;;;;;;;17.65;8.05;;;;;;;;;;5040212;28;20124;-90
2021/11/25 05:31:48;;;;;;;21.70;8.83;;;;;;;;;;5032828;28;20078;-89
2021/11/25 05:34:16;;;;;;;14.35;7.53;;;;;;;;;;5031531;28;20288;-89
2021/11/25 05:36:42;;;;;;;20.48;8.27;;;;;;;;;;5016472;28;20029;-89
2021/11/25 05:39:09;;;;;;;22.38;9.90;;;;;;;;;;5033145;28;20034;-91
2021/11/25 05:41:35;;;;;;;21.20;9.13;;;;;;;;;;5032227;28;20124;-88
2021/11/25 05:44:01;;;;;;;15.25;7.90;;;;;;;;;;5032399;28;20152;-92
2021/11/25 05:46:27;;;;;;;20.88;9.05;;;;;;;;;;5036728;28;20501;-90
2021/11/25 05:48:53;;;;;;;20.02;8.93;;;;;;;;;;5032001;28;20038;-91
2021/11/25 05:51:19;;;;;;;23.35;9.10;;;;;;;;;;5047368;28;20026;-89
2021/11/25 05:53:45;;;;;;;16.17;8.25;;;;;;;;;;5032636;28;20493;-91
2021/11/25 05:56:11;;;;;;;26.83;12.35;;;;;;;;;;5031440;28;20033;-89
2021/11/25 05:58:37;;;;;;;13.15;7.43;;;;;;;;;;5031811;28;20040;-88
2021/11/25 06:01:03;;;;;;;19.42;7.25;;;;;;;;;;5029301;28;20056;-89
2021/11/25 06:03:29;;;;;;;16.83;8.15;;;;;;;;;;5045244;28;20514;-90
2021/11/25 06:05:55;;;;;;;21.50;9.40;;;;;;;;;;5031957;28;20033;-90
2021/11/25 06:08:21;;;;;;;26.58;9.50;;;;;;;;;;5032276;28;20056;-90
2021/11/25 06:10:47;;;;;;;19.58;10.20;;;;;;;;;;5031676;28;20553;-90
2021/11/25 06:13:13;;;;;;;21.08;8.07;;;;;;;;;;5046990;28;20068;-90
2021/11/25 06:15:39;;;;;;;24.27;9.50;;;;;;;;;;5030871;28;20727;-90
2021/11/25 06:18:05;;;;;;;26.80;8.90;;;;;;;;;;5028044;28;20120;-90
2021/11/25 06:20:31;;;;;;;15.35;6.97;;;;;;;;;;5030160;28;20029;-89
2021/11/25 06:22:58;;;;;;;28.13;9.80;;;;;;;;;;5030491;28;20052;-91
2021/11/25 06:25:26;;;;;;;20.08;9.88;;;6.10;86.10;;;;;;5030861;28;20119;-89
2021/11/25 06:27:52;;;;;;;18.40;8.82;;;;;;;;;;5030293;28;20014;-90
2021/11/25 06:30:18;;;;;;;16.83;8.02;;;;;;;;;;5030152;28;20494;-89
2021/11/25 06:32:45;;;;;;;16.83;10.05;;;;;;;;;;5031016;28;20025;-89
2021/11/25 06:35:12;;;;;;;23.15;9.80;;;;;;;;;;5027092;28;20086;-88
2021/11/25 06:37:39;;;;;;;21.30;8.73;;;;;;;;;;5027303;28;20406;-90
2021/11/25 06:40:05;;;;;;;23.88;9.05;;;;;;;;;;5029143;28;20038;-88
2021/11/25 06:42:31;;;;;;;18.85;9.18;;;;;;;;;;5024222;28;20619;-89
2021/11/25 06:44:57;;;;;;;17.13;7.88;;;;;;;;;;5029781;28;20065;-89
2021/11/25 06:47:23;;;;;;;14.55;8.45;;;;;;;;;;5030164;28;20025;-90
2021/11/25 06:49:49;;;;;;;13.43;7.57;;;;;;;;;;5045794;28;20026;-89
2021/11/25 06:52:15;;;;;;;28.95;12.05;;;;;;;;;;5030778;28;20047;-90
2021/11/25 06:54:41;;;;;;;17.13;9.48;;;;;;;;;;5023994;28;20032;-87
2021/11/25 06:57:07;;;;;;;25.13;10.55;;;;;;;;;;5029327;28;20099;-88
2021/11/25 06:59:33;;;;;;;16.65;8.32;;;;;;;;;;5028163;28;20065;-87
2021/11/25 07:01:59;;;;;;;10.30;6.82;;;;;;;;;;5028719;28;20082;-89
2021/11/25 07:04:25;;;;;;;21.65;8.43;;;;;;;;;;5027563;28;20111;-87
2021/11/25 07:06:51;;;;;;;21.20;11.13;;;;;;;;;;5028164;28;20447;-87
2021/11/25 07:09:17;;;;;;;23.58;9.85;;;;;;;;;;5044043;28;20112;-88
2021/11/25 07:11:43;;;;;;;13.82;7.75;;;;;;;;;;5028045;28;20030;-87
2021/11/25 07:14:10;;;;;;;20.65;9.90;;;;;;;;;;5040361;28;20034;-88
2021/11/25 07:16:36;;;;;;;16.02;7.70;;;;;;;;;;5019237;28;20021;-87
2021/11/25 07:19:03;;;;;;;25.30;11.65;;;6.20;85.40;;;;;;5043147;28;20064;-88
2021/11/25 07:21:29;;;;;;;21.97;8.07;;;;;;;;;;5028116;28;20034;-88
2021/11/25 07:23:55;;;;;;;17.48;9.05;;;;;;;;;;5028391;28;20415;-88
2021/11/25 07:26:23;;;;;;;22.45;9.50;;;;;;;;;;5028175;28;20450;-88
2021/11/25 07:28:49;;;;;;;22.60;7.78;;;;;;;;;;5043382;28;20025;-87
2021/11/25 07:31:15;;;;;;;23.10;9.25;;;;;;;;;;5027408;28;20037;-88
2021/11/25 07:33:41;;;;;;;18.15;8.65;;;;;;;;;;5027088;28;20091;-93
2021/11/25 07:36:07;;;;;;;15.43;7.78;;;;;;;;;;5031218;28;20133;-87
2021/11/25 07:38:34;;;;;;;21.17;7.97;;;;;;;;;;5015574;28;20792;-87
2021/11/25 07:41:00;;;;;;;20.70;11.70;;;;;;;;;;5037588;28;20029;-92
2021/11/25 07:43:27;;;;;;;16.55;7.22;;;6.30;85.50;;;;;;5028826;28;20037;-94
2021/11/25 07:45:53;;;;;;;20.65;10.02;;;;;;;;;;5036359;28;20120;-89
2021/11/25 07:48:19;;;;;;;16.08;8.57;;;;;;;;;;5023730;28;20082;-87
2021/11/25 07:50:45;;;;;;;20.08;8.50;;;;;;;;;;5027712;28;20028;-89
2021/11/25 07:53:12;;;;;;;30.88;10.00;;;;;;;;;;5032627;28;20033;-94
2021/11/25 07:56:01;;;;;;;19.42;8.43;;;;;;;;;;5030292;28;20026;-94
2021/11/25 07:58:28;;;;;;;21.00;9.02;;;;;;;;;;5059929;28;20014;-95
2021/11/25 08:00:54;;;;;;;;;;;6.20;86.20;;;;;;5032581;28;20049;-93
2021/11/25 08:03:20;;;;;;;26.92;9.52;;;;;;;;;;5030718;28;19935;-88
2021/11/25 08:05:46;;;;;;;25.98;11.45;;;;;;;;;;5029042;28;20021;-93
2021/11/25 08:08:12;;;;;;;20.55;8.48;;;;;;;;;;5029612;28;20487;-93
2021/11/25 08:10:39;;;;;;;24.63;8.60;;;;;;;;;;5028037;28;20032;-93
2021/11/25 08:13:05;;;;;;;23.83;9.77;;;;;;;;;;5032363;28;20037;-94
2021/11/25 08:15:32;;;;;;;15.35;10.48;;;6.30;86.20;;;;;;5039735;28;20030;-93
2021/11/25 08:17:58;;;;;;;19.02;10.02;;;;;;;;;;5034799;28;20056;-92
2021/11/25 08:20:24;;;;;;;23.67;10.63;;;;;;;;;;5030494;28;20108;-90
2021/11/25 08:22:51;;;;;;;20.92;7.97;;;;;;;;;;5024434;28;20041;-89
2021/11/25 08:25:17;;;;;;;21.42;8.95;;;6.40;86.40;;;;;;5040437;28;20052;-96
2021/11/25 08:27:43;;;;;;;22.10;9.63;;;;;;;;;;5038252;28;20467;-92
2021/11/25 08:30:13;;;;;;;22.55;8.57;;;6.50;86.40;;;;;;5033538;28;20017;-81
2021/11/25 08:32:39;;;;;;;21.42;10.30;;;;;;;;;;5040436;28;20518;-92
2021/11/25 08:35:06;;;;;;;24.65;10.18;;;6.40;86.40;;;;;;5033082;28;20120;-91
2021/11/25 08:37:33;;;;;;;22.95;9.20;;;;;;;;;;5034296;28;20076;-92
2021/11/25 08:39:59;;;;;;;19.60;8.80;;;;;;;;;;5035526;28;20021;-92
2021/11/25 08:42:25;;;;;;;16.73;9.38;;;;;;;;;;5034522;28;20029;-92
2021/11/25 08:44:51;;;;;;;25.17;9.48;;;;;;;;;;5034086;28;20398;-90
2021/11/25 08:47:17;;;;;;;24.00;11.18;;;;;;;;;;5033404;28;20502;-89
2021/11/25 08:49:43;;;;;;;24.33;9.07;;;;;;;;;;5032649;28;20604;-89
2021/11/25 08:52:09;;;;;;;22.20;8.32;;;;;;;;;;5032893;28;20130;-91
2021/11/25 08:54:35;;;;;;;19.95;8.48;;;;;;;;;;5032859;28;20041;-89
2021/11/25 08:57:01;;;;;;;24.90;9.45;;;;;;;;;;5033351;28;20025;-89
2021/11/25 08:59:27;;;;;;;26.35;11.23;;;;;;;;;;5031420;28;20629;-90
2021/11/25 09:01:53;;;;;;;21.77;8.60;;;;;;;;;;5032986;28;20071;-90
2021/11/25 09:04:19;;;;;;;24.30;12.18;;;;;;;;;;5033219;28;20091;-90
2021/11/25 09:06:45;;;;;;;24.58;10.27;;;;;;;;;;5032364;28;20060;-89
2021/11/25 09:09:12;;;;;;;25.05;10.80;;;;;;;;;;5034109;28;20442;-90
2021/11/25 09:11:38;;;;;;;30.90;9.70;;;;;;;;;;5032948;28;20498;-89
2021/11/25 09:14:04;;;;;;;27.88;13.60;;;;;;;;;;5032895;28;20681;-89
2021/11/25 09:16:30;;;;;;;24.98;10.48;;;;;;;;;;5035795;28;20037;-96
2021/11/25 09:18:57;;;;;;;30.90;11.25;;;;;;;;;;5031235;28;20017;-90
2021/11/25 09:21:23;;;;;;;21.83;10.07;;;;;;;;;;5014970;28;20160;-92
2021/11/25 09:23:50;;;;;;;21.70;11.20;;;;;;;;;;5034051;28;20045;-94
2021/11/25 09:26:17;;;;;;;23.77;9.85;;;;;;;;;;5036239;28;20029;-95
2021/11/25 09:28:43;;;;;;;25.92;11.27;;;;;;;;;;5034279;28;20556;-95
2021/11/25 09:31:13;;;;;;;28.33;11.35;;;;;;;;;;5035638;28;20029;-95
2021/11/25 09:33:39;;;;;;;19.80;8.65;;;;;;;;;;5034747;28;20037;-92
2021/11/25 09:36:06;;;;;;;23.65;10.00;;;;;;;;;;5032787;28;20060;-94
2021/11/25 09:38:32;;;;;;;27.58;13.63;;;;;;;;;;5033324;28;20033;-94
2021/11/25 09:41:00;;;;;;;26.25;11.50;;;;;;;;;;5032165;28;20434;-91
2021/11/25 09:43:26;;;;;;;25.02;10.50;;;;;;;;;;5022883;28;20494;-96
2021/11/25 09:45:53;;;;;;;32.22;12.05;;;8.10;82.80;;;;;;5016522;28;20028;-93
2021/11/25 09:48:22;;;;;;;24.02;11.35;;;7.90;83.20;;;;;;5034674;28;20104;-88
2021/11/25 09:50:49;;;;;;;33.33;11.50;;;;;;;;;;5029704;28;20030;-94
2021/11/25 09:53:16;;;;;;;21.13;8.93;;;;;;;;;;5029473;28;20032;-90
2021/11/25 09:55:44;;;;;;;32.53;12.38;;;8.10;82.80;;;;;;5032733;28;20069;-90
2021/11/25 09:58:14;;;;;;;25.92;9.85;;;8.00;83.60;;;;;;5036035;28;20039;-95
2021/11/25 10:00:44;;;;;;;32.50;11.25;;;;;;;;;;5103077;22;20096;-93
2021/11/25 10:03:16;;;;;;;24.63;10.82;;;;;;;;;;5009367;28;20061;-94
2021/11/25 10:05:47;;;;;;;25.63;12.43;;;;;;;;;;5012266;28;20076;-93
2021/11/25 10:08:22;;;;;;;25.95;12.02;;;8.30;82.00;;;;;;5014107;28;20025;-94
2021/11/25 10:11:16;;;;;;;20.70;10.45;;;8.20;82.30;;;;;;5013910;28;20402;-95
2021/11/25 10:13:42;;;;;;;14.02;7.40;;;;;;;;;;5014577;28;20156;-93
2021/11/25 10:16:11;;;;;;;15.25;9.40;;;;;;;;;;5013641;28;20128;-95
2021/11/25 10:18:37;;;;;;;26.38;10.10;;;;;;;;;;5013357;28;20116;-96
2021/11/25 10:21:10;;;;;;;18.47;8.83;;;8.00;83.20;;;;;;5013832;28;20080;-95
2021/11/25 10:23:37;;;;;;;26.88;11.32;;;;;;;;;;5008182;28;20088;-95
2021/11/25 10:26:06;;;;;;;29.52;11.25;;;8.00;82.70;;;;;;5013445;28;20029;-94
2021/11/25 10:28:44;;;;;;;22.27;10.45;;;7.90;83.10;;;;;;5011325;28;20030;-94
2021/11/25 10:31:11;;;;;;;23.80;8.50;;;;;;;;;;5009696;28;20041;-95
2021/11/25 10:33:55;;;;;;;23.27;11.20;;;8.10;83.00;;;;;;5013003;28;20117;-96
2021/11/25 10:41:56;;;;;;;26.50;10.02;;;8.50;83.10;;;;;;4995490;28;20058;-95
2021/11/25 10:44:34;;;;;;;28.35;10.07;;;8.50;82.70;;;;;;5007544;28;20045;-94
2021/11/25 10:47:11;;;;;;;34.20;12.10;;;8.40;83.30;;;;;;5024919;28;20019;-93
2021/11/25 10:49:42;;;;;;;27.90;12.00;;;8.40;82.80;;;;;;5006547;28;20055;-96
2021/11/25 10:52:12;;;;;;;29.33;12.00;;;8.40;82.60;;;;;;5018044;28;20394;-96
2021/11/25 10:54:42;;;;;;;25.60;10.32;;;;;;;;;;5029605;28;20646;-95
2021/11/25 10:57:08;;;;;;;22.52;10.30;;;;;;;;;;5012554;28;20030;-96
2021/11/25 10:59:40;;;;;;;18.40;10.82;;;8.40;84.00;;;;;;5013038;28;20053;-94
2021/11/25 11:02:31;;;;;;;33.67;10.05;;;8.40;84.30;;;;;;5015684;28;20029;-93
2021/11/25 11:05:21;;;;;;;24.95;10.63;;;8.40;84.80;;;;;;5009872;28;20045;-96
2021/11/25 11:07:49;;;;;;;27.08;8.90;;;;;;;;;;5010353;28;20502;-93
2021/11/25 11:10:27;;;;;;;28.60;13.10;;;8.50;85.10;;;;;;5012187;28;20042;-94
2021/11/25 11:15:51;;;;;;;23.83;11.80;;;;;;;;;;5011864;28;20034;-94
2021/11/25 11:20:49;;;;;;;25.15;10.70;;;8.60;81.70;;;;;;5010987;28;20036;-94
2021/11/25 11:23:17;;;;;;;24.55;12.00;;;;;;;;;;5011859;28;20119;-93
2021/11/25 11:25:43;;;;;;;25.60;11.55;;;8.70;81.40;;;;;;5016673;28;20041;-95
2021/11/25 11:28:10;;;;;;;31.50;10.77;;;;;;;;;;5010424;28;20661;-95
2021/11/25 11:30:36;;;;;;;26.97;10.70;;;;;;;;;;4994021;28;20625;-95
2021/11/25 11:33:08;;;;;;;34.17;11.27;;;8.80;82.10;;;;;;5011739;28;20281;-93
2021/11/25 11:35:34;;;;;;;22.30;11.60;;;;;;;;;;5009913;28;20041;-93
2021/11/25 11:38:02;;;;;;;28.60;12.17;;;;;;;;;;4993540;28;20029;-94
2021/11/25 11:40:29;;;;;;;;;;;8.70;83.50;;;;;;4992884;28;20030;-93
2021/11/25 11:42:57;;;;;;;24.87;9.93;;;8.70;84.20;;;;;;5007610;28;19920;-93
2021/11/25 11:45:23;;;;;;;22.23;9.68;;;;;;;;;;5011738;28;20069;-92
2021/11/25 11:47:51;;;;;;;24.23;10.73;;;;;;;;;;5003651;28;20030;-91
2021/11/25 11:50:17;;;;;;;28.17;10.70;;;;;;;;;;5010582;28;20109;-92
2021/11/25 11:52:57;;;;;;;26.08;12.05;;;;;;;;;;5010337;28;20033;-91
2021/11/25 11:55:29;;;;;;;19.67;9.25;;;;;;;;;;5012054;28;20080;-92
2021/11/25 11:57:55;;;;;;;28.75;11.30;;;;;;;;;;5010058;28;20030;-92
2021/11/25 12:00:22;;;;;;;27.30;11.68;;;;;;;;;;5011689;28;20050;-92
2021/11/25 12:02:54;;;;;;;27.92;13.95;;;9.10;83.10;;;;;;5014797;28;20034;-92
2021/11/25 12:05:39;;;;;;;33.95;11.95;;;;;;;;;;5014851;28;20041;-92
2021/11/25 12:08:20;;;;;;;27.45;10.40;;;;;;;;;;5015615;28;20126;-93
2021/11/25 12:10:57;;;;;;;30.58;9.18;;;;;;;;;;5013843;28;20037;-92
2021/11/25 12:13:31;;;;;;;30.40;12.75;;;;;;;;;;5009604;28;20049;-92
2021/11/25 12:16:18;;;;;;;28.33;12.73;;;8.80;81.90;;;;;;5015324;28;20414;-92
2021/11/25 12:18:54;;;;;;;24.42;10.68;;;8.90;82.10;;;;;;5013096;28;20109;-92
2021/11/25 12:21:44;;;;;;;25.70;10.07;;;;;;;;;;5014742;28;20029;-93
2021/11/25 12:24:16;;;;;;;20.63;10.52;;;;;;;;;;5000558;28;20056;-92
2021/11/25 12:26:57;;;;;;;28.05;12.15;;;;;;;;;;5014953;28;20063;-93
2021/11/25 12:29:43;;;;;;;24.27;11.10;;;;;;;;;;5014863;28;20037;-91
2021/11/25 12:32:44;;;;;;;23.85;9.50;;;;;;;;;;5014310;28;20042;-91
2021/11/25 12:35:19;;;;;;;27.42;12.48;;;;;;;;;;5014242;28;20034;-92
2021/11/25 12:37:46;;;;;;;24.20;9.07;;;;;;;;;;5014625;28;20113;-92
2021/11/25 12:40:15;;;;;;;20.05;9.95;;;;;;;;;;5005711;28;20031;-92
2021/11/25 12:42:45;;;;;;;27.17;11.23;;;8.80;81.80;;;;;;4997020;28;20026;-93
2021/11/25 12:45:39;;;;;;;22.08;11.25;;;8.80;82.20;;;;;;5013859;28;20517;-91
2021/11/25 12:50:54;;;;;;;19.60;10.30;;;;;;;;;;5013170;28;20042;-90
2021/11/25 12:53:29;;;;;;;23.95;9.93;;;8.50;84.00;;;;;;4984517;28;20041;-92
2021/11/25 12:55:58;;;;;;;26.45;11.70;;;8.60;83.70;;;;;;5008104;28;20030;-93
2021/11/25 12:58:39;;;;;;;26.83;11.82;;;;;;;;;;4993482;28;20038;-92
2021/11/25 13:01:09;;;;;;;25.52;8.15;;;8.60;85.20;;;;;;4996875;28;20030;-93
2021/11/25 13:03:35;;;;;;;29.55;12.82;;;;;;;;;;4978328;28;20049;-92
2021/11/25 13:06:02;;;;;;;22.95;10.05;;;8.80;84.40;;;;;;4995065;28;20480;-93
2021/11/25 13:08:36;;;;;;;26.80;10.55;;;;;;;;;;4992355;28;20037;-93
2021/11/25 13:11:03;;;;;;;17.70;9.55;;;;;;;;;;5011502;28;20172;-93
2021/11/25 13:13:31;;;;;;;23.10;10.50;;;;;;;;;;5010514;28;20033;-91
2021/11/25 13:16:06;;;;;;;21.23;10.90;;;8.80;83.20;;;;;;5010868;28;20233;-90
2021/11/25 13:18:38;;;;;;;33.33;13.07;;;;;;;;;;5011356;28;20030;-91
2021/11/25 13:21:05;;;;;;;22.48;11.43;;;;;;;;;;4998805;28;20018;-91
2021/11/25 13:23:31;;;;;;;34.60;14.25;;;;;;;;;;5005114;28;20040;-91
2021/11/25 13:26:02;;;;;;;17.40;9.13;;;;;;;;;;5003873;28;20030;-90
2021/11/25 13:28:32;;;;;;;21.05;10.40;;;;;;;;;;5003450;28;20045;-91
2021/11/25 13:31:22;;;;;;;27.20;12.85;;;8.60;83.60;;;;;;5010393;28;20031;-90
2021/11/25 13:33:59;;;;;;;25.77;11.00;;;;;;;;;;4997447;28;20034;-89
2021/11/25 13:36:40;;;;;;;23.30;9.83;;;8.50;85.00;;;;;;5009951;28;20030;-90
2021/11/25 13:39:11;;;;;;;25.67;12.15;;;;;;;;;;5008912;28;20281;-92
2021/11/25 13:41:37;;;;;;;27.67;12.30;;;8.40;85.00;;;;;;5009846;28;20113;-93
2021/11/25 13:44:04;;;;;;;22.30;11.65;;;;;;;;;;5013049;28;20060;-91
2021/11/25 13:46:41;;;;;;;27.73;12.27;;;;;;;;;;5011783;28;20058;-90
2021/11/25 13:49:09;;;;;;;24.98;10.15;;;8.30;85.60;;;;;;5006358;28;20062;-91
2021/11/25 13:51:35;;;;;;;19.92;10.77;;;;;;;;;;5011417;28;20526;-90
2021/11/25 13:54:02;;;;;;;20.85;10.90;;;;;;;;;;5000127;28;20029;-90
2021/11/25 13:56:29;;;;;;;25.90;11.55;;;;;;;;;;5008351;28;20669;-90
2021/11/25 13:58:55;;;;;;;29.07;12.83;;;;;;;;;;5012683;28;20458;-90
2021/11/25 14:01:21;;;;;;;31.00;12.43;;;;;;;;;;5010242;28;20030;-93
2021/11/25 14:03:47;;;;;;;25.92;10.63;;;;;;;;;;4995065;28;20150;-90
2021/11/25 14:06:28;;;;;;;30.77;12.45;;;8.30;84.40;;;;;;4997758;28;20061;-91
2021/11/25 14:09:03;;;;;;;25.15;11.50;;;;;;;;;;5012621;28;20407;-90
2021/11/25 14:11:29;;;;;;;30.90;13.10;;;;;;;;;;5012978;28;20025;-91
2021/11/25 14:14:00;;;;;;;27.52;12.32;;;;;;;;;;4999257;28;20034;-92
2021/11/25 14:16:27;;;;;;;21.00;10.38;;;;;;;;;;5002361;28;20112;-93
2021/11/25 14:18:53;;;;;;;25.27;10.65;;;;;;;;;;5010759;28;20403;-91
2021/11/25 14:21:40;;;;;;;29.00;10.77;;;;;;;;;;5011931;28;20022;-94
2021/11/25 14:24:07;;;;;;;29.27;12.05;;;;;;;;;;5010718;28;20033;-90
2021/11/25 14:26:50;;;;;;;35.75;12.55;;;;;;;;;;4992327;28;20033;-90
2021/11/25 14:32:15;;;;;;;40.08;15.93;;;;;;;;;;5002521;28;20536;-91